Time;durP1;ratioP1;P1;durP2;ratioP2;P2;SDS_P1;SDS_P2;PMS_P1;PMS_P2;Temp;Humidity;BMP_temperature;BMP_pressure;BME280_temperature;BME280_humidity;BME280_pressure;Samples;Min_cycle;Max_cycle;Signal;HPM_P1;HPM_P2
2024/04/15 00:00:13;;;;;;;;;1.00;1.00;;;;;16.84;55.35;101462.63;5450703;25;43923;-64
2024/04/15 00:02:39;;;;;;;;;1.75;1.75;;;;;16.65;54.95;101433.81;5451854;26;44213;-64
2024/04/15 00:05:04;;;;;;;;;1.00;1.00;;;;;16.73;55.09;101440.69;5440326;26;43995;-64
2024/04/15 00:07:29;;;;;;;;;1.75;1.00;;;;;16.77;55.74;101443.19;5457505;25;43994;-64
2024/04/15 00:09:55;;;;;;;;;3.00;1.50;;;;;16.75;55.42;101439.66;5463506;25;44046;-65
2024/04/15 00:12:20;;;;;;;;;2.25;0.75;;;;;16.48;55.77;101398.69;5443470;25;45068;-64
2024/04/15 00:14:46;;;;;;;;;4.50;1.00;;;;;16.62;55.94;101428.59;5448256;26;43838;-64
2024/04/15 00:17:11;;;;;;;;;3.00;2.00;;;;;16.59;56.08;101417.94;5442967;26;43966;-64
2024/04/15 00:19:38;;;;;;;;;2.00;2.00;;;;;16.61;55.92;101429.53;5424943;26;43950;-64
2024/04/15 00:22:03;;;;;;;;;2.00;2.00;;;;;16.59;55.74;101422.44;5410373;26;46037;-64
2024/04/15 00:24:28;;;;;;;;;1.00;1.00;;;;;16.48;55.43;101415.72;5450707;25;44025;-64
2024/04/15 00:26:54;;;;;;;;;1.25;1.25;;;;;16.59;56.10;101427.84;5450306;25;44125;-64
2024/04/15 00:29:19;;;;;;;;;1.00;0.50;;;;;16.39;56.44;101397.31;5458755;25;44108;-64
2024/04/15 00:31:44;;;;;;;;;1.00;1.00;;;;;16.45;55.33;101415.88;5463268;25;43899;-64
2024/04/15 00:34:10;;;;;;;;;2.25;1.00;;;;;16.52;55.31;101431.78;5461644;25;43892;-64
2024/04/15 00:36:36;;;;;;;;;3.25;1.75;;;;;16.41;55.14;101408.03;5461077;26;43963;-64
2024/04/15 00:39:01;;;;;;;;;1.00;1.00;;;;;16.42;55.93;101401.69;5462791;25;44019;-64
2024/04/15 00:41:26;;;;;;;;;4.00;2.00;;;;;16.52;55.30;101415.59;5454085;25;45055;-64
2024/04/15 00:43:52;;;;;;;;;1.50;0.00;;;;;16.46;55.93;101416.78;5449663;26;43963;-64
2024/04/15 00:46:17;;;;;;;;;1.00;1.00;;;;;16.38;54.72;101402.78;5451802;26;45274;-64
2024/04/15 00:48:43;;;;;;;;;2.00;2.00;;;;;16.45;55.51;101434.75;5464418;26;44811;-64
2024/04/15 00:51:10;;;;;;;;;3.75;2.00;;;;;16.36;55.78;101412.75;5442375;26;45345;-64
2024/04/15 00:53:36;;;;;;;;;1.50;1.00;;;;;16.39;54.72;101409.91;5454115;26;44375;-64
2024/04/15 00:56:03;;;;;;;;;1.25;0.50;;;;;16.33;55.58;101413.75;5454194;26;43815;-64
2024/04/15 00:58:30;;;;;;;;;1.25;1.25;;;;;16.33;54.92;101418.28;5445140;26;43867;-64
2024/04/15 01:00:57;;;;;;;;;2.00;1.50;;;;;16.22;54.89;101403.50;5453914;26;45397;-64
2024/04/15 01:03:24;;;;;;;;;2.00;1.00;;;;;16.28;54.53;101421.19;5442977;26;43918;-64
2024/04/15 01:05:49;;;;;;;;;4.75;2.00;;;;;16.19;54.37;101398.22;5441447;25;43963;-64
2024/04/15 01:08:15;;;;;;;;;2.00;1.00;;;;;16.17;54.70;101397.44;5462897;25;44026;-64
2024/04/15 01:10:40;;;;;;;;;1.50;1.50;;;;;16.04;55.16;101383.63;5464414;26;46912;-64
2024/04/15 01:13:06;;;;;;;;;1.00;1.00;;;;;16.09;53.71;101396.91;5441259;25;43973;-64
2024/04/15 01:15:32;;;;;;;;;1.00;1.00;;;;;16.04;54.26;101382.78;5463801;25;44015;-64
2024/04/15 01:17:57;;;;;;;;;2.00;2.00;;;;;16.14;54.05;101388.59;5458408;25;44289;-64
2024/04/15 01:20:23;;;;;;;;;1.00;1.00;;;;;16.01;54.22;101367.63;5442112;26;44133;-64
2024/04/15 01:22:55;;;;;;;;;1.75;1.00;;;;;16.17;53.91;101394.75;5453521;26;44115;-64
2024/04/15 01:25:21;;;;;;;;;1.00;0.00;;;;;15.87;53.43;101349.41;5440474;26;44032;-64
2024/04/15 01:27:46;;;;;;;;;1.00;1.00;;;;;15.84;53.79;101354.91;5453556;26;44103;-65
2024/04/15 01:30:12;;;;;;;;;1.00;1.00;;;;;15.96;53.92;101372.34;5453044;26;43821;-64
2024/04/15 01:32:37;;;;;;;;;3.00;2.00;;;;;15.82;54.39;101350.53;5438516;25;46146;-65
2024/04/15 01:35:03;;;;;;;;;1.00;1.00;;;;;15.95;54.50;101362.50;5453301;26;43907;-64
2024/04/15 01:37:28;;;;;;;;;2.25;1.25;;;;;15.85;54.77;101343.19;5441022;25;44119;-64
2024/04/15 01:39:54;;;;;;;;;1.00;1.00;;;;;15.72;55.30;101332.09;5441632;25;44341;-64
2024/04/15 01:42:19;;;;;;;;;1.75;1.75;;;;;15.93;54.68;101370.66;5453603;26;44252;-64
2024/04/15 01:44:44;;;;;;;;;1.00;1.00;;;;;15.79;54.89;101354.25;5452950;26;44169;-64
2024/04/15 01:47:10;;;;;;;;;2.25;1.25;;;;;15.71;54.30;101348.28;5464456;25;44145;-64
2024/04/15 01:49:35;;;;;;;;;2.00;1.25;;;;;15.76;55.14;101367.84;5463419;26;45095;-64
2024/04/15 01:52:00;;;;;;;;;3.00;1.50;;;;;15.58;54.46;101342.56;5489768;25;44595;-64
2024/04/15 01:54:26;;;;;;;;;2.25;2.00;;;;;15.36;55.17;101311.22;5489163;25;43818;-65
2024/04/15 01:56:51;;;;;;;;;2.25;1.75;;;;;15.71;55.89;101380.59;5455313;25;44198;-65
2024/04/15 01:59:16;;;;;;;;;2.25;1.00;;;;;15.66;55.80;101370.03;5452526;26;43931;-64
2024/04/15 02:01:42;;;;;;;;;2.00;1.00;;;;;15.45;55.52;101344.03;5440748;26;52726;-64
2024/04/15 02:04:07;;;;;;;;;3.25;2.50;;;;;15.66;56.31;101375.41;5465513;26;43848;-64
2024/04/15 02:06:32;;;;;;;;;1.00;1.00;;;;;15.67;56.11;101381.66;5446234;26;44025;-64
2024/04/15 02:08:57;;;;;;;;;2.25;2.00;;;;;15.41;55.79;101337.94;5456286;26;44082;-64
2024/04/15 02:11:23;;;;;;;;;1.50;1.50;;;;;15.64;55.13;101377.28;5441021;25;43933;-64
2024/04/15 02:13:48;;;;;;;;;2.75;1.00;;;;;15.59;56.09;101370.38;5445723;25;44007;-64
2024/04/15 02:16:14;;;;;;;;;1.75;1.75;;;;;15.51;55.31;101358.09;5458442;26;43908;-64
2024/04/15 02:18:39;;;;;;;;;1.00;1.00;;;;;15.46;56.11;101353.88;5429012;26;44041;-64
2024/04/15 02:21:05;;;;;;;;;3.00;1.50;;;;;15.56;56.44;101371.38;5453949;26;43943;-64
2024/04/15 02:23:30;;;;;;;;;2.00;2.00;;;;;15.44;56.30;101361.16;5443749;26;43974;-64
2024/04/15 02:25:56;;;;;;;;;1.50;1.00;;;;;15.35;56.33;101335.50;5436692;26;43762;-64
2024/04/15 02:28:21;;;;;;;;;4.50;2.00;;;;;15.49;57.06;101361.81;5444998;26;51640;-64
2024/04/15 02:30:50;;;;;;;;;1.50;1.00;;;;;15.49;56.22;101367.19;5453189;26;43868;-64
2024/04/15 02:33:16;;;;;;;;;2.25;2.25;;;;;15.49;56.37;101357.31;5450360;26;43951;-64
2024/04/15 02:35:41;;;;;;;;;1.00;1.00;;;;;15.46;55.72;101340.44;5489759;25;44115;-64
2024/04/15 02:38:07;;;;;;;;;3.00;2.00;;;;;15.50;57.00;101342.03;5444279;25;49422;-64
2024/04/15 02:40:32;;;;;;;;;2.00;2.00;;;;;15.48;56.78;101328.63;5452799;26;43925;-64
2024/04/15 02:42:58;;;;;;;;;1.75;1.75;;;;;15.38;56.10;101322.81;5449794;26;44085;-64
2024/04/15 02:45:24;;;;;;;;;3.00;2.00;;;;;15.41;57.50;101346.00;5440836;25;43880;-64
2024/04/15 02:47:49;;;;;;;;;1.00;1.00;;;;;15.36;56.73;101337.25;5462495;26;59859;-64
2024/04/15 02:50:14;;;;;;;;;2.00;1.00;;;;;15.42;56.89;101358.53;5456058;25;43920;-64
2024/04/15 02:52:41;;;;;;;;;2.00;1.00;;;;;15.36;55.78;101348.00;5448177;26;43920;-64
2024/04/15 02:55:07;;;;;;;;;3.75;2.00;;;;;15.34;56.55;101349.91;5456239;25;43872;-64
2024/04/15 02:57:32;;;;;;;;;2.75;1.00;;;;;15.36;56.40;101353.41;5430279;26;44114;-64
2024/04/15 02:59:57;;;;;;;;;1.00;1.00;;;;;15.21;56.08;101332.53;5471675;25;43932;-64
2024/04/15 03:02:23;;;;;;;;;4.00;1.00;;;;;15.15;56.37;101334.53;5480446;25;43787;-64
2024/04/15 03:04:48;;;;;;;;;3.50;1.50;;;;;15.26;57.63;101352.91;5440485;25;43861;-64
2024/04/15 03:07:13;;;;;;;;;2.00;2.00;;;;;15.28;56.78;101352.84;5443027;25;55123;-64
2024/04/15 03:09:39;;;;;;;;;1.50;1.00;;;;;14.96;56.37;101306.66;5457914;26;46199;-64
2024/04/15 03:12:04;;;;;;;;;1.00;1.00;;;;;15.10;57.34;101338.34;5446722;25;44120;-64
2024/04/15 03:14:31;;;;;;;;;3.50;3.00;;;;;15.16;57.60;101349.72;5443472;26;43923;-64
2024/04/15 03:16:56;;;;;;;;;4.00;0.00;;;;;15.24;57.40;101365.53;5457001;25;45362;-64
2024/04/15 03:19:21;;;;;;;;;3.00;1.25;;;;;15.10;57.08;101335.66;5456759;26;43990;-64
2024/04/15 03:21:48;;;;;;;;;1.75;1.00;;;;;15.14;57.62;101348.91;5441686;26;44002;-64
2024/04/15 03:24:14;;;;;;;;;4.00;2.25;;;;;14.93;57.74;101313.03;5452243;26;43902;-64
2024/04/15 03:26:39;;;;;;;;;2.00;1.00;;;;;15.14;57.53;101348.06;5446577;26;45088;-64
2024/04/15 03:29:04;;;;;;;;;1.00;1.00;;;;;15.11;57.73;101343.66;5457666;26;45158;-64
2024/04/15 03:31:29;;;;;;;;;2.00;2.00;;;;;15.08;58.18;101351.84;5446753;26;44004;-64
2024/04/15 03:33:55;;;;;;;;;3.25;1.00;;;;;15.08;57.92;101335.72;5440155;25;43920;-64
2024/04/15 03:36:20;;;;;;;;;1.00;1.00;;;;;14.90;57.54;101307.81;5445422;25;43897;-64
2024/04/15 03:38:45;;;;;;;;;2.75;1.00;;;;;15.04;58.41;101326.03;5452218;26;43988;-64
2024/04/15 03:41:11;;;;;;;;;2.50;1.00;;;;;15.04;58.41;101331.44;5449134;25;43872;-64
2024/04/15 03:43:36;;;;;;;;;1.25;1.00;;;;;15.01;57.89;101336.94;5471855;25;48051;-64
2024/04/15 03:46:01;;;;;;;;;2.50;2.00;;;;;14.82;58.05;101315.31;5461004;25;45604;-64
2024/04/15 03:48:27;;;;;;;;;2.00;1.00;;;;;14.67;58.58;101302.47;5439902;26;43832;-64
2024/04/15 03:50:52;;;;;;;;;2.25;2.00;;;;;14.66;59.02;101298.94;5446937;26;44304;-64
2024/04/15 03:53:17;;;;;;;;;2.75;2.00;;;;;14.80;59.06;101314.47;5461411;26;56655;-64
2024/04/15 03:55:51;;;;;;;;;3.75;2.00;;;;;14.70;59.15;101287.13;5444290;25;43863;-66
2024/04/15 03:58:17;;;;;;;;;2.00;1.25;;;;;14.76;59.16;101305.66;5451379;26;43867;-66
2024/04/15 04:00:42;;;;;;;;;2.75;1.50;;;;;14.50;58.72;101265.53;5449681;26;43828;-66
2024/04/15 04:03:07;;;;;;;;;1.75;1.00;;;;;14.65;59.27;101297.19;5447863;25;48920;-66
2024/04/15 04:05:32;;;;;;;;;4.00;2.00;;;;;14.50;59.13;101281.63;5445780;26;46545;-66
2024/04/15 04:07:58;;;;;;;;;2.00;1.50;;;;;14.66;59.26;101303.44;5461445;26;43907;-66
2024/04/15 04:10:24;;;;;;;;;2.00;2.00;;;;;14.28;59.22;101244.91;5446490;26;43945;-66
2024/04/15 04:12:50;;;;;;;;;1.00;1.00;;;;;14.60;59.15;101313.50;5455173;26;44166;-66
2024/04/15 04:15:15;;;;;;;;;1.00;1.00;;;;;14.49;59.36;101282.59;5445709;26;53348;-66
2024/04/15 04:17:40;;;;;;;;;1.50;1.00;;;;;14.48;58.96;101279.00;5457115;26;43882;-66
2024/04/15 04:20:06;;;;;;;;;2.75;1.25;;;;;14.49;59.82;101294.22;5446660;25;43980;-66
2024/04/15 04:22:31;;;;;;;;;2.50;2.00;;;;;14.36;58.83;101258.03;5445723;26;44212;-66
2024/04/15 04:24:57;;;;;;;;;1.00;1.00;;;;;14.29;59.42;101249.34;5464380;26;57034;-66
2024/04/15 04:27:22;;;;;;;;;2.25;1.25;;;;;14.51;59.67;101302.19;5440186;26;43827;-66
2024/04/15 04:29:47;;;;;;;;;1.25;1.00;;;;;14.49;59.23;101294.22;5464113;26;52415;-66
2024/04/15 04:32:13;;;;;;;;;2.75;1.50;;;;;14.44;59.26;101294.38;5440328;26;43980;-66
2024/04/15 04:34:38;;;;;;;;;3.75;2.00;;;;;14.25;59.34;101262.03;5448088;26;57119;-66
2024/04/15 04:37:03;;;;;;;;;3.75;1.50;;;;;14.24;59.17;101256.72;5457265;26;56980;-66
2024/04/15 04:39:28;;;;;;;;;1.75;1.00;;;;;14.45;58.89;101311.41;5447389;25;43827;-66
2024/04/15 04:41:54;;;;;;;;;4.00;1.00;;;;;14.49;59.04;101322.88;5484086;25;60116;-66
2024/04/15 04:44:19;;;;;;;;;2.00;1.00;;;;;14.32;59.40;101283.28;5447785;26;58646;-66
2024/04/15 04:46:44;;;;;;;;;2.75;1.00;;;;;14.21;59.55;101254.13;5460161;26;43973;-66
2024/04/15 04:49:10;;;;;;;;;1.75;0.75;;;;;14.19;60.16;101259.56;5465130;25;43807;-66
2024/04/15 04:51:36;;;;;;;;;0.00;0.00;;;;;14.21;59.39;101273.78;5458136;26;44127;-66
2024/04/15 04:54:01;;;;;;;;;2.00;1.00;;;;;14.19;59.28;101277.50;5430132;26;44025;-66
2024/04/15 04:56:26;;;;;;;;;1.00;1.00;;;;;14.27;59.80;101283.44;5441677;26;47355;-66
2024/04/15 04:58:53;;;;;;;;;2.00;1.00;;;;;14.00;59.80;101245.09;5446220;26;44143;-66
2024/04/15 05:01:18;;;;;;;;;2.00;1.50;;;;;13.96;60.21;101241.66;5448650;25;53034;-66
2024/04/15 05:03:45;;;;;;;;;1.25;1.00;;;;;14.28;60.29;101290.53;5464279;26;45710;-66
2024/04/15 05:06:12;;;;;;;;;3.00;2.00;;;;;14.23;60.07;101285.38;5457055;26;44129;-66
2024/04/15 05:08:38;;;;;;;;;1.75;1.75;;;;;14.23;59.76;101290.75;5451888;26;44022;-66
2024/04/15 05:11:04;;;;;;;;;2.75;0.50;;;;;14.01;59.84;101258.47;5444262;25;43938;-66
2024/04/15 05:13:30;;;;;;;;;2.25;2.00;;;;;14.18;60.23;101298.09;5463496;25;43956;-66
2024/04/15 05:16:04;;;;;;;;;2.75;2.00;;;;;14.17;60.16;101290.09;5453758;26;44070;-66
2024/04/15 05:18:29;;;;;;;;;1.75;1.75;;;;;14.06;59.44;101261.84;5428066;26;44081;-66
2024/04/15 05:20:54;;;;;;;;;2.00;1.00;;;;;14.20;60.13;101263.13;5432430;26;43904;-66
2024/04/15 05:23:19;;;;;;;;;3.00;1.00;;;;;14.13;60.61;101267.84;5463543;26;45964;-66
2024/04/15 05:25:45;;;;;;;;;2.00;2.00;;;;;14.14;60.38;101263.38;5441292;25;53202;-66
2024/04/15 05:28:10;;;;;;;;;1.00;1.00;;;;;14.02;60.09;101248.63;5448847;25;44115;-66
2024/04/15 05:30:35;;;;;;;;;1.00;1.00;;;;;14.01;60.12;101245.03;5437455;26;44032;-66
2024/04/15 05:33:01;;;;;;;;;2.00;2.00;;;;;13.96;60.70;101243.47;5446423;26;44120;-66
2024/04/15 05:35:26;;;;;;;;;1.00;1.00;;;;;13.86;60.37;101232.22;5441503;25;43944;-65
2024/04/15 05:37:51;;;;;;;;;4.25;1.50;;;;;13.82;60.69;101241.34;5463314;26;59517;-66
2024/04/15 05:40:17;;;;;;;;;1.00;1.00;;;;;13.66;60.77;101224.94;5438697;26;54463;-66
2024/04/15 05:42:42;;;;;;;;;4.25;2.00;;;;;13.91;61.18;101283.91;5483368;25;44673;-66
2024/04/15 05:45:08;;;;;;;;;1.00;0.75;;;;;13.68;61.33;101249.88;5466548;25;44002;-66
2024/04/15 05:47:34;;;;;;;;;2.50;1.00;;;;;13.52;60.86;101233.50;5428479;26;43891;-67
2024/04/15 05:49:59;;;;;;;;;2.50;1.25;;;;;13.61;61.67;101251.06;5481947;25;51714;-66
2024/04/15 05:52:26;;;;;;;;;4.00;1.00;;;;;13.67;61.40;101262.44;5444099;26;60138;-66
2024/04/15 05:54:51;;;;;;;;;2.75;1.00;;;;;13.66;61.54;101259.81;5459858;25;44577;-66
2024/04/15 05:57:16;;;;;;;;;1.75;1.00;;;;;13.65;62.00;101258.06;5445394;26;43948;-66
2024/04/15 05:59:41;;;;;;;;;2.50;2.00;;;;;13.63;61.62;101262.59;5451273;25;44294;-66
2024/04/15 06:02:07;;;;;;;;;3.50;0.75;;;;;13.60;61.70;101257.34;5463760;26;46426;-66
2024/04/15 06:04:35;;;;;;;;;0.00;0.00;;;;;13.47;61.91;101241.69;5434192;26;43950;-66
2024/04/15 06:07:01;;;;;;;;;3.00;2.00;;;;;13.68;62.00;101274.91;5446287;26;44223;-66
2024/04/15 06:09:26;;;;;;;;;3.50;1.00;;;;;13.39;62.26;101234.88;5458273;25;43774;-66
2024/04/15 06:11:52;;;;;;;;;2.00;0.00;;;;;13.67;62.07;101280.34;5446427;25;43832;-66
2024/04/15 06:14:21;;;;;;;;;1.25;1.00;;;;;13.51;61.97;101248.72;5463155;26;47597;-66
2024/04/15 06:16:47;;;;;;;;;1.75;1.00;;;;;13.59;62.25;101259.16;5449160;25;43886;-69
2024/04/15 06:19:12;;;;;;;;;2.00;1.00;;;;;13.66;61.60;101263.34;5453584;26;43886;-72
2024/04/15 06:21:38;;;;;;;;;1.25;1.25;;;;;13.60;62.01;101258.22;5445767;26;44036;-75
2024/04/15 06:24:03;;;;;;;;;3.00;1.75;;;;;13.58;61.98;101253.84;5457711;25;44318;-71
2024/04/15 06:26:28;;;;;;;;;1.00;1.00;;;;;13.70;61.86;101274.88;5466586;25;44067;-73
2024/04/15 06:28:54;;;;;;;;;4.50;1.25;;;;;13.61;61.83;101259.09;5443624;26;49795;-74
2024/04/15 06:31:19;;;;;;;;;2.00;2.00;;;;;13.64;61.71;101273.28;5445013;26;43967;-74
2024/04/15 06:33:45;;;;;;;;;2.25;1.00;;;;;13.68;61.92;101271.34;5449135;25;44040;-74
2024/04/15 06:36:10;;;;;;;;;2.00;1.00;;;;;13.59;61.44;101271.69;5444353;26;43962;-74
2024/04/15 06:38:35;;;;;;;;;0.75;0.75;;;;;13.67;62.26;101289.25;5453525;26;44150;-74
2024/04/15 06:41:00;;;;;;;;;1.00;1.00;;;;;13.61;61.57;101267.16;5438583;25;44045;-73
2024/04/15 06:43:27;;;;;;;;;2.75;1.75;;;;;13.45;61.95;101246.25;5445435;25;50706;-72
2024/04/15 06:45:52;;;;;;;;;2.00;0.75;;;;;13.43;62.61;101249.91;5454844;26;44167;-71
2024/04/15 06:48:18;;;;;;;;;3.00;2.00;;;;;13.39;62.13;101242.91;5444813;26;44060;-74
2024/04/15 06:50:44;;;;;;;;;3.25;1.00;;;;;13.56;62.23;101264.63;5460655;25;44652;-75
2024/04/15 06:53:09;;;;;;;;;2.00;1.00;;;;;13.51;61.61;101247.81;5444808;26;43920;-74
2024/04/15 06:55:35;;;;;;;;;0.75;0.75;;;;;13.32;62.18;101215.44;5451448;25;44368;-74
2024/04/15 06:58:00;;;;;;;;;1.25;1.25;;;;;13.40;61.98;101228.56;5445709;26;43918;-74
2024/04/15 07:00:25;;;;;;;;;1.00;1.00;;;;;13.33;62.14;101206.47;5459796;25;44123;-72
2024/04/15 07:02:52;;;;;;;;;2.75;1.75;;;;;13.56;62.64;101240.47;5451021;26;43931;-72
2024/04/15 07:05:18;;;;;;;;;0.25;0.25;;;;;13.44;62.09;101209.63;5450380;26;44091;-73
2024/04/15 07:07:43;;;;;;;;;2.50;1.25;;;;;13.62;62.30;101234.03;5443322;26;44220;-72
2024/04/15 07:10:08;;;;;;;;;2.00;0.75;;;;;13.46;61.39;101197.03;5444698;26;45992;-72
2024/04/15 07:12:34;;;;;;;;;1.25;1.00;;;;;13.38;61.42;101184.84;5438156;26;59562;-72
2024/04/15 07:14:59;;;;;;;;;2.25;1.50;;;;;13.40;61.49;101193.69;5459270;25;44007;-69
2024/04/15 07:17:24;;;;;;;;;0.50;0.00;;;;;13.60;61.18;101220.69;5452088;26;44167;-71
2024/04/15 07:19:49;;;;;;;;;1.00;1.00;;;;;13.56;61.07;101213.66;5456664;26;57366;-68
2024/04/15 07:22:17;;;;;;;;;1.00;1.00;;;;;13.44;61.37;101177.44;5461985;25;44038;-68
2024/04/15 07:24:43;;;;;;;;;0.25;0.00;;;;;13.47;60.37;101168.44;5464034;25;43879;-68
2024/04/15 07:27:08;;;;;;;;;0.25;0.25;;;;;13.52;60.71;101178.03;5450273;25;44069;-68
2024/04/15 07:29:35;;;;;;;;;1.00;1.00;;;;;13.52;60.68;101159.25;5451794;25;46859;-68
2024/04/15 07:32:03;;;;;;;;;2.00;0.75;;;;;13.77;60.04;101192.34;5464611;25;44176;-70
2024/04/15 07:34:29;;;;;;;;;1.00;0.00;;;;;13.62;60.50;101167.84;5462977;25;43842;-68
2024/04/15 07:36:54;;;;;;;;;2.00;2.00;;;;;13.65;60.53;101154.31;5436820;25;59378;-68
2024/04/15 07:39:19;;;;;;;;;2.25;0.00;;;;;13.72;60.28;101179.09;5456412;25;44991;-68
2024/04/15 07:41:45;;;;;;;;;2.00;0.00;;;;;13.62;60.27;101156.25;5461585;25;44364;-68
2024/04/15 07:44:10;;;;;;;;;1.50;0.00;;;;;13.83;60.16;101189.41;5460637;25;43971;-68
2024/04/15 07:46:36;;;;;;;;;0.00;0.00;;;;;13.68;59.55;101151.53;5459449;25;44070;-68
2024/04/15 07:49:01;;;;;;;;;0.75;0.00;;;;;13.93;58.94;101184.56;5450637;26;46828;-68
2024/04/15 07:51:27;;;;;;;;;0.00;0.00;;;;;13.79;58.95;101169.88;5448520;26;43906;-68
2024/04/15 07:53:52;;;;;;;;;1.75;0.25;;;;;13.92;59.04;101180.13;5456366;26;44030;-68
2024/04/15 07:56:18;;;;;;;;;1.00;1.00;;;;;14.04;58.16;101201.13;5459637;26;46068;-68
2024/04/15 07:58:43;;;;;;;;;0.00;0.00;;;;;13.82;58.56;101148.28;5443244;25;44036;-68
2024/04/15 08:01:09;;;;;;;;;1.25;0.00;;;;;13.86;58.85;101149.91;5439127;25;43875;-68
2024/04/15 08:03:34;;;;;;;;;1.25;0.00;;;;;13.92;58.07;101164.91;5462349;26;43913;-73
2024/04/15 08:05:59;;;;;;;;;1.75;0.00;;;;;14.10;57.77;101179.41;5440292;25;43901;-68
2024/04/15 08:08:25;;;;;;;;;1.00;0.25;;;;;13.93;57.21;101150.53;5446276;26;44940;-68
2024/04/15 08:10:50;;;;;;;;;0.75;0.75;;;;;13.99;57.30;101157.47;5439014;26;52020;-67
2024/04/15 08:13:17;;;;;;;;;3.50;1.00;;;;;14.05;57.16;101166.16;5458985;26;44072;-69
2024/04/15 08:15:43;;;;;;;;;1.75;1.00;;;;;14.03;56.85;101151.94;5462585;26;44034;-71
2024/04/15 08:18:08;;;;;;;;;1.00;1.00;;;;;14.06;56.95;101153.59;5441966;26;45626;-69
2024/04/15 08:20:34;;;;;;;;;0.50;0.50;;;;;14.05;56.79;101128.59;5453785;25;43960;-70
2024/04/15 08:22:59;;;;;;;;;2.00;0.25;;;;;14.06;56.42;101138.38;5451080;26;49105;-70
2024/04/15 08:25:24;;;;;;;;;0.50;0.50;;;;;14.14;56.54;101139.88;5458598;26;44071;-70
2024/04/15 08:27:50;;;;;;;;;0.00;0.00;;;;;14.11;55.83;101137.31;5462526;25;47510;-69
2024/04/15 08:30:15;;;;;;;;;0.00;0.00;;;;;14.14;56.08;101131.81;5453660;25;46093;-70
2024/04/15 08:32:40;;;;;;;;;0.25;0.00;;;;;14.15;55.82;101128.19;5456025;26;44092;-70
2024/04/15 08:35:06;;;;;;;;;1.00;1.00;;;;;14.17;56.18;101134.41;5437611;26;43908;-68
2024/04/15 08:37:32;;;;;;;;;3.25;1.00;;;;;14.21;55.84;101131.50;5450930;26;44113;-68
2024/04/15 08:39:57;;;;;;;;;1.00;1.00;;;;;14.17;55.17;101121.84;5437044;26;44500;-68
2024/04/15 08:42:48;;;;;;;;;1.75;0.75;;;;;14.43;54.73;101157.47;5462066;26;44397;-68
2024/04/15 08:45:18;;;;;;;;;0.00;0.00;;;;;14.41;55.32;101137.84;5457660;26;44211;-74
2024/04/15 08:47:48;;;;;;;;;0.25;0.00;;;;;14.26;55.45;101117.88;5463440;26;47024;-66
2024/04/15 08:50:14;;;;;;;;;2.75;1.00;;;;;14.49;55.47;101129.50;5446900;25;44205;-68
2024/04/15 08:52:41;;;;;;;;;1.25;0.75;;;;;14.15;55.30;101063.75;5451643;26;44019;-68
2024/04/15 08:55:08;;;;;;;;;0.00;0.00;;;;;14.54;55.23;101135.53;5444633;26;44087;-70
2024/04/15 08:57:35;;;;;;;;;0.00;0.00;;;;;14.56;55.07;101126.44;5453510;25;44099;-70
2024/04/15 09:00:01;;;;;;;;;0.00;0.00;;;;;14.30;54.91;101079.25;5432636;25;44282;-70
2024/04/15 09:02:28;;;;;;;;;1.00;1.00;;;;;14.31;55.49;101080.97;5443713;26;44079;-67
2024/04/15 09:04:56;;;;;;;;;1.75;1.75;;;;;14.36;55.09;101081.66;5454464;25;44000;-67
2024/04/15 09:07:21;;;;;;;;;0.00;0.00;;;;;14.49;55.10;101111.53;5437547;25;44053;-67
2024/04/15 09:09:46;;;;;;;;;1.25;0.25;;;;;14.34;55.29;101074.59;5458402;25;45739;-67
2024/04/15 09:12:11;;;;;;;;;2.00;1.00;;;;;14.39;55.67;101083.34;5461057;26;48672;-67
2024/04/15 09:14:37;;;;;;;;;3.00;1.00;;;;;14.40;55.50;101079.69;5444363;26;52571;-70
2024/04/15 09:17:02;;;;;;;;;1.00;1.00;;;;;14.43;55.27;101080.47;5449136;26;44078;-70
2024/04/15 09:19:29;;;;;;;;;0.00;0.00;;;;;14.49;55.56;101086.50;5439042;25;43909;-69
2024/04/15 09:22:03;;;;;;;;;2.25;0.25;;;;;14.58;54.82;101102.22;5457779;25;44099;-70
2024/04/15 09:24:29;;;;;;;;;3.00;3.00;;;;;14.39;55.11;101067.22;5454431;26;43729;-70
2024/04/15 09:26:55;;;;;;;;;1.25;1.00;;;;;14.51;55.12;101084.63;5459369;26;53854;-70
2024/04/15 09:29:20;;;;;;;;;1.75;1.75;;;;;14.69;55.08;101115.22;5453650;25;44036;-69
2024/04/15 09:31:45;;;;;;;;;3.00;1.75;;;;;14.52;54.73;101081.88;5449574;26;44025;-70
2024/04/15 09:34:11;;;;;;;;;1.75;0.50;;;;;14.63;54.51;101102.91;5453841;25;44134;-70
2024/04/15 09:36:42;;;;;;;;;1.50;1.00;;;;;14.49;54.65;101065.03;5445009;25;49923;-69
2024/04/15 09:39:08;;;;;;;;;0.00;0.00;;;;;14.51;54.59;101060.44;5446414;26;44144;-70
2024/04/15 09:41:34;;;;;;;;;1.00;1.00;;;;;14.48;55.07;101047.16;5440752;25;45847;-70
2024/04/15 09:44:00;;;;;;;;;1.00;1.00;;;;;14.43;55.69;101021.38;5441166;25;44015;-70
2024/04/15 09:46:31;;;;;;;;;0.25;0.25;;;;;14.48;55.35;101020.28;5458853;26;56001;-69
2024/04/15 09:48:57;;;;;;;;;1.25;1.00;;;;;14.79;56.05;101063.69;5441108;25;43896;-70
2024/04/15 09:51:24;;;;;;;;;1.00;1.00;;;;;14.66;55.27;101024.88;5454290;26;43883;-70
2024/04/15 09:53:54;;;;;;;;;2.25;1.00;;;;;14.70;55.82;101031.88;5436857;26;44057;-70
2024/04/15 09:56:27;;;;;;;;;3.00;0.00;;;;;14.88;56.20;101048.09;5452782;26;44822;-69
2024/04/15 09:58:57;;;;;;;;;2.00;0.25;;;;;14.93;55.57;101051.44;5456861;26;44203;-70
2024/04/15 10:01:30;;;;;;;;;1.00;0.00;;;;;15.00;55.30;101040.34;5439546;25;44155;-70
2024/04/15 10:03:58;;;;;;;;;0.00;0.00;;;;;14.97;55.31;101035.09;5455595;26;43945;-70
2024/04/15 10:06:41;;;;;;;;;1.00;1.00;;;;;14.90;54.85;101009.47;5460243;25;45506;-70
2024/04/15 10:09:08;;;;;;;;;1.00;0.00;;;;;14.86;54.76;100974.72;5438834;25;43959;-70
2024/04/15 10:11:35;;;;;;;;;0.00;0.00;;;;;15.11;54.46;101001.31;5431082;26;44008;-70
2024/04/15 10:14:01;;;;;;;;;0.00;0.00;;;;;14.95;54.32;100960.84;5458310;26;43936;-70
2024/04/15 10:16:26;;;;;;;;;3.00;1.75;;;;;15.05;54.80;100951.41;5436561;26;44135;-70
2024/04/15 10:18:58;;;;;;;;;1.00;0.00;;;;;15.09;54.22;100933.31;5457102;26;50565;-67
2024/04/15 10:21:24;;;;;;;;;1.00;1.00;;;;;15.32;54.68;100986.84;5463849;25;44384;-66
2024/04/15 10:23:50;;;;;;;;;1.00;1.00;;;;;15.17;54.17;100950.81;5449521;25;44062;-70
2024/04/15 10:26:15;;;;;;;;;0.50;0.50;;;;;15.16;53.42;100946.38;5451164;25;44045;-70
2024/04/15 10:28:41;;;;;;;;;0.00;0.00;;;;;15.26;53.90;100938.75;5459772;25;43916;-70
2024/04/15 10:31:06;;;;;;;;;0.50;0.00;;;;;15.39;53.58;100947.09;5434482;25;44344;-69
2024/04/15 10:33:32;;;;;;;;;0.25;0.00;;;;;15.34;54.25;100920.41;5459084;26;43916;-69
2024/04/15 10:35:57;;;;;;;;;0.75;0.00;;;;;15.32;54.24;100910.69;5460696;25;45627;-69
2024/04/15 10:38:27;;;;;;;;;2.00;0.50;;;;;15.56;53.96;100930.97;5444116;25;43828;-69
2024/04/15 10:40:54;;;;;;;;;1.50;0.00;;;;;15.49;53.83;100904.47;5441785;26;44431;-69
2024/04/15 10:43:24;;;;;;;;;0.00;0.00;;;;;15.40;52.87;100881.56;5439196;25;43887;-69
2024/04/15 10:45:50;;;;;;;;;0.75;0.75;;;;;15.49;52.73;100886.50;5440436;25;45299;-69
2024/04/15 10:48:16;;;;;;;;;0.00;0.00;;;;;15.69;52.47;100908.84;5460461;26;43894;-67
2024/04/15 10:50:41;;;;;;;;;0.00;0.00;;;;;15.62;53.40;100869.72;5464150;25;43763;-67
2024/04/15 10:53:08;;;;;;;;;0.00;0.00;;;;;15.65;53.54;100874.94;5437787;25;44045;-67
2024/04/15 10:55:33;;;;;;;;;1.00;1.00;;;;;15.69;53.18;100855.88;5462793;25;44755;-67
2024/04/15 10:57:59;;;;;;;;;0.50;0.50;;;;;15.89;53.16;100878.22;5435918;25;44051;-68
2024/04/15 11:00:24;;;;;;;;;1.00;0.00;;;;;16.00;52.05;100885.72;5436988;25;44197;-69
2024/04/15 11:02:52;;;;;;;;;1.00;0.00;;;;;16.04;52.38;100882.78;5452861;26;44054;-68
2024/04/15 11:05:18;;;;;;;;;2.00;1.00;;;;;15.90;53.00;100847.66;5464422;26;44246;-68
2024/04/15 11:07:47;;;;;;;;;0.50;0.00;;;;;15.88;53.50;100838.78;5442377;25;43937;-68
2024/04/15 11:10:13;;;;;;;;;0.00;0.00;;;;;15.81;52.12;100829.31;5460821;26;43910;-70
2024/04/15 11:12:39;;;;;;;;;1.50;1.00;;;;;15.91;53.02;100858.34;5454917;25;44035;-70
2024/04/15 11:15:10;;;;;;;;;0.00;0.00;;;;;15.78;52.34;100816.00;5461445;26;44955;-70
2024/04/15 11:17:35;;;;;;;;;1.50;1.00;;;;;16.04;51.43;100846.94;5464263;25;44674;-70